| time (UTC) | temp C | wind direction | speed KPH | gust KPH | rain 1hr cm | rain 24hr cm | rain mn cm | humidity % | barometer mb |
| 20260503021550 | 12 | 49 | 0.0 | 0.0 | 0.00 | 0.79 | 0.74 | 96 | 1012.3 |
| 20260503021048 | 12 | 49 | 0.0 | 0.0 | 0.00 | 0.79 | 0.74 | 96 | 1012.2 |
| 20260503020841 | 12 | 49 | 0.0 | 0.0 | 0.00 | 0.79 | 0.74 | 96 | 1012.3 |
| 20260503020043 | 12 | 49 | 0.0 | 0.0 | 0.00 | 0.79 | 0.74 | 95 | 1012.3 |
| 20260503015541 | 12 | 49 | 0.0 | 0.0 | 0.00 | 0.79 | 0.74 | 95 | 1012.3 |
| 20260503015038 | 12 | 49 | 0.0 | 0.0 | 0.00 | 0.79 | 0.74 | 95 | 1012.4 |
| 20260503014841 | 12 | 49 | 0.0 | 0.0 | 0.00 | 0.79 | 0.74 | 95 | 1012.3 |
| 20260503014037 | 12 | 49 | 0.0 | 1.6 | 0.00 | 0.79 | 0.74 | 95 | 1012.3 |
| 20260503013535 | 12 | 49 | 0.0 | 1.6 | 0.00 | 0.79 | 0.74 | 95 | 1012.2 |
| 20260503013031 | 12 | 49 | 0.0 | 1.6 | 0.00 | 0.79 | 0.74 | 95 | 1012.2 |
| 20260503012531 | 12 | 71 | 0.0 | 1.6 | 0.00 | 0.79 | 0.74 | 95 | 1012.2 |
| 20260503012030 | 12 | 65 | 0.0 | 1.6 | 0.00 | 0.79 | 0.74 | 95 | 1012.3 |
| 20260503011525 | 12 | 65 | 0.0 | 1.6 | 0.00 | 0.79 | 0.74 | 95 | 1012.2 |
| 20260503011019 | 12 | 64 | 0.0 | 1.6 | 0.00 | 0.79 | 0.74 | 95 | 1012.5 |
| 20260503010517 | 12 | 33 | 0.0 | 1.6 | 0.00 | 0.79 | 0.74 | 95 | 1012.6 |
| 20260503010022 | 12 | 122 | 0.0 | 1.6 | 0.00 | 0.79 | 0.74 | 95 | 1012.6 |
| 20260503005520 | 12 | 87 | 0.0 | 3.2 | 0.00 | 0.79 | 0.74 | 95 | 1012.6 |
| 20260503005020 | 12 | 110 | 0.0 | 3.2 | 0.00 | 0.79 | 0.74 | 95 | 1012.7 |
| 20260503004518 | 12 | 88 | 0.0 | 0.0 | 0.00 | 0.79 | 0.74 | 95 | 1012.7 |
| 20260503004322 | 12 | 73 | 0.0 | 1.6 | 0.00 | 0.79 | 0.74 | 95 | 1012.8 |
| 20260503003520 | 12 | 73 | 0.0 | 1.6 | 0.03 | 0.79 | 0.74 | 95 | 1012.8 |
| 20260503003019 | 12 | 73 | 0.0 | 0.0 | 0.03 | 0.79 | 0.74 | 95 | 1013.0 |
| 20260503002520 | 12 | 73 | 0.0 | 1.6 | 0.03 | 0.79 | 0.74 | 95 | 1013.1 |
| 20260503002305 | 12 | 73 | 0.0 | 1.6 | 0.05 | 0.79 | 0.74 | 95 | 1013.0 |
| 20260503001824 | 12 | 73 | 0.0 | 1.6 | 0.08 | 0.79 | 0.74 | 95 | 1013.0 |
| 20260503001119 | 12 | 73 | 0.0 | 0.0 | 0.13 | 0.79 | 0.74 | 95 | 1013.2 |
| 20260503001059 | 12 | 73 | 0.0 | 0.0 | 0.08 | 0.79 | 0.74 | 95 | 1013.0 |
| 20260503000018 | 12 | 73 | 0.0 | 0.0 | 0.18 | 0.79 | 0.74 | 94 | 1013.2 |
| 20260502235519 | 13 | 73 | 0.0 | 1.6 | 0.23 | 0.79 | 0.74 | 94 | 1013.2 |
| 20260502235017 | 13 | 73 | 0.0 | 3.2 | 0.25 | 0.79 | 0.74 | 94 | 1012.9 |
| 20260502234516 | 13 | 73 | 0.0 | 3.2 | 0.30 | 0.79 | 0.74 | 94 | 1012.9 |
| 20260502234255 | 13 | 57 | 0.0 | 3.2 | 0.51 | 0.76 | 0.71 | 94 | 1013.7 |
| 20260502234251 | 13 | 5 | 0.0 | 3.2 | 0.46 | 0.76 | 0.71 | 94 | 1013.2 |
| 20260502234211 | 13 | 87 | 0.0 | 3.2 | 0.38 | 0.79 | 0.74 | 94 | 1013.1 |
| 20260502233057 | 13 | 61 | 0.0 | 3.2 | 0.48 | 0.76 | 0.71 | 94 | 1013.5 |
| 20260502232013 | 13 | 57 | 0.0 | 3.2 | 0.61 | 0.74 | 0.69 | 94 | 1013.7 |
| 20260502231515 | 13 | 57 | 0.0 | 1.6 | 0.66 | 0.71 | 0.66 | 94 | 1014.1 |
| 20260502231012 | 13 | 57 | 0.0 | 1.6 | 0.66 | 0.71 | 0.64 | 94 | 1014.6 |
| 20260502230517 | 13 | 57 | 0.0 | 0.0 | 0.61 | 0.66 | 0.61 | 93 | 1014.9 |
| 20260502230010 | 13 | 57 | 0.0 | 1.6 | 0.56 | 0.61 | 0.56 | 93 | 1015.0 |
| 20260502225510 | 13 | 57 | 0.0 | 1.6 | 0.51 | 0.56 | 0.51 | 93 | 1015.0 |
| 20260502225008 | 13 | 57 | 0.0 | 0.0 | 0.48 | 0.53 | 0.46 | 92 | 1015.1 |
| 20260502224514 | 13 | 57 | 0.0 | 0.0 | 0.46 | 0.48 | 0.41 | 92 | 1015.3 |
| 20260502224007 | 13 | 58 | 0.0 | 1.6 | 0.41 | 0.41 | 0.36 | 92 | 1015.3 |
| 20260502223758 | 13 | 58 | 0.0 | 1.6 | 0.30 | 0.30 | 0.25 | 92 | 1015.5 |
| 20260502223004 | 13 | 345 | 0.0 | 1.6 | 0.28 | 0.28 | 0.23 | 92 | 1015.8 |
| 20260502222502 | 13 | 91 | 0.0 | 3.2 | 0.25 | 0.25 | 0.18 | 92 | 1016.0 |
| 20260502222004 | 13 | 324 | 0.0 | 3.2 | 0.10 | 0.10 | 0.05 | 91 | 1015.9 |
| 20260502221502 | 13 | 95 | 0.0 | 0.0 | 0.05 | 0.05 | 0.00 | 91 | 1015.8 |
| 20260502221004 | 14 | 316 | 0.0 | 0.0 | 0.05 | 0.05 | 0.00 | 90 | 1014.9 |
| 20260502220502 | 14 | 316 | 0.0 | 0.0 | 0.05 | 0.05 | 0.00 | 90 | 1014.8 |
| 20260502220051 | 14 | 316 | 0.0 | 0.0 | 0.05 | 0.05 | 0.00 | 89 | 1014.8 |
| 20260502215506 | 14 | 316 | 0.0 | 0.0 | 0.05 | 0.05 | 0.05 | 88 | 1014.8 |
| 20260502215006 | 14 | 316 | 0.0 | 0.0 | 0.05 | 0.05 | 0.05 | 87 | 1014.8 |
| 20260502214503 | 15 | 316 | 0.0 | 0.0 | 0.03 | 0.03 | 0.03 | 85 | 1014.8 |
| 20260502214004 | 15 | 356 | 0.0 | 0.0 | 0.00 | 0.00 | 0.00 | 83 | 1014.8 |
| 20260502213502 | 15 | 135 | 0.0 | 0.0 | 0.00 | 0.00 | 0.00 | 83 | 1014.9 |
| 20260502213004 | 15 | 98 | 0.0 | 0.0 | 0.00 | 0.00 | 0.00 | 84 | 1014.7 |
| 20260502212506 | 15 | 82 | 0.0 | 0.0 | 0.00 | 0.00 | 0.00 | 85 | 1014.4 |
| 20260502212309 | 15 | 29 | 0.0 | 0.0 | 0.00 | 0.00 | 0.00 | 86 | 1014.3 |
| 20260502211505 | 15 | 25 | 0.0 | 0.0 | 0.00 | 0.00 | 0.00 | 86 | 1014.3 |
| 20260502211004 | 15 | 25 | 0.0 | 0.0 | 0.00 | 0.00 | 0.00 | 86 | 1014.2 |
| 20260502210503 | 15 | 16 | 0.0 | 0.0 | 0.00 | 0.00 | 0.00 | 86 | 1014.3 |
| 20260502210006 | 15 | 342 | 0.0 | 0.0 | 0.00 | 0.00 | 0.00 | 86 | 1014.5 |
| 20260502205502 | 15 | 22 | 0.0 | 0.0 | 0.00 | 0.00 | 0.00 | 86 | 1014.6 |
| 20260502205241 | 15 | 51 | 0.0 | 0.0 | 0.00 | 0.00 | 0.00 | 86 | 1014.6 |
| 20260502204459 | 15 | 51 | 0.0 | 0.0 | 0.00 | 0.00 | 0.00 | 86 | 1014.7 |
| 20260502203954 | 15 | 305 | 0.0 | 0.0 | 0.00 | 0.00 | 0.00 | 86 | 1014.7 |
| 20260502203450 | 15 | 305 | 0.0 | 0.0 | 0.00 | 0.00 | 0.00 | 86 | 1014.8 |
| 20260502202944 | 15 | 305 | 0.0 | 0.0 | 0.00 | 0.00 | 0.00 | 85 | 1015.0 |
| 20260502202444 | 15 | 305 | 0.0 | 0.0 | 0.00 | 0.00 | 0.00 | 85 | 1014.9 |
| 20260502201943 | 15 | 305 | 0.0 | 0.0 | 0.00 | 0.00 | 0.00 | 85 | 1015.0 |
| 20260502201440 | 15 | 307 | 0.0 | 0.0 | 0.00 | 0.00 | 0.00 | 84 | 1015.0 |
| 20260502201230 | 15 | 2 | 0.0 | 0.0 | 0.00 | 0.00 | 0.00 | 83 | 1015.2 |
| 20260502200439 | 15 | 27 | 0.0 | 3.2 | 0.00 | 0.00 | 0.00 | 83 | 1015.4 |
| 20260502195938 | 15 | 24 | 0.0 | 3.2 | 0.00 | 0.00 | 0.00 | 82 | 1015.3 |
| 20260502195722 | 15 | 72 | 0.0 | 3.2 | 0.00 | 0.00 | 0.00 | 80 | 1015.4 |
| 20260502194938 | 15 | 292 | 0.0 | 1.6 | 0.00 | 0.00 | 0.00 | 78 | 1015.4 |
| 20260502194729 | 15 | 292 | 0.0 | 3.2 | 0.00 | 0.00 | 0.00 | 76 | 1015.4 |
| 20260502193939 | 15 | 292 | 0.0 | 3.2 | 0.00 | 0.00 | 0.00 | 73 | 1015.4 |
| 20260502193438 | 15 | 292 | 0.0 | 0.0 | 0.00 | 0.00 | 0.00 | 71 | 1015.4 |
| 20260502192940 | 16 | 292 | 0.0 | 0.0 | 0.00 | 0.00 | 0.00 | 70 | 1015.4 |
| 20260502192432 | 16 | 292 | 0.0 | 0.0 | 0.00 | 0.00 | 0.00 | 69 | 1015.3 |
| 20260502191933 | 16 | 292 | 0.0 | 0.0 | 0.00 | 0.00 | 0.00 | 69 | 1015.5 |
| 20260502191432 | 16 | 292 | 0.0 | 0.0 | 0.00 | 0.00 | 0.00 | 68 | 1015.5 |
| 20260502190934 | 16 | 292 | 0.0 | 0.0 | 0.00 | 0.00 | 0.00 | 65 | 1015.5 |
| 20260502190716 | 17 | 292 | 0.0 | 0.0 | 0.00 | 0.00 | 0.00 | 64 | 1015.4 |
| 20260502185934 | 17 | 292 | 0.0 | 1.6 | 0.00 | 0.00 | 0.00 | 63 | 1015.4 |
| 20260502185825 | 17 | 292 | 0.0 | 1.6 | 0.00 | 0.00 | 0.00 | 62 | 1015.3 |
| 20260502185522 | 17 | 292 | 0.0 | 1.6 | 0.00 | 0.00 | 0.00 | 62 | 1015.3 |
| 20260502184432 | 17 | 292 | 0.0 | 1.6 | 0.00 | 0.00 | 0.00 | 63 | 1015.4 |
| 20260502183934 | 17 | 292 | 0.0 | 3.2 | 0.00 | 0.00 | 0.00 | 63 | 1015.3 |
| 20260502183434 | 17 | 292 | 0.0 | 3.2 | 0.00 | 0.00 | 0.00 | 62 | 1015.2 |
| 20260502182930 | 17 | 313 | 0.0 | 0.0 | 0.00 | 0.00 | 0.00 | 62 | 1015.3 |
| 20260502182431 | 17 | 313 | 0.0 | 1.6 | 0.00 | 0.00 | 0.00 | 62 | 1015.2 |
| 20260502181930 | 17 | 313 | 0.0 | 1.6 | 0.00 | 0.00 | 0.00 | 63 | 1015.2 |
| 20260502181721 | 17 | 313 | 0.0 | 4.8 | 0.00 | 0.00 | 0.00 | 63 | 1015.2 |
| 20260502180932 | 17 | 313 | 0.0 | 4.8 | 0.00 | 0.00 | 0.00 | 62 | 1015.2 |
| 20260502180432 | 17 | 310 | 0.0 | 3.2 | 0.00 | 0.00 | 0.00 | 63 | 1015.3 |
| 20260502170415 | 20 | 296 | 1.6 | 6.4 | 0.00 | 0.00 | 0.00 | 58 | 1015.9 |
| 20260502164157 | 22 | 294 | 0.0 | 4.8 | 0.00 | 0.00 | 0.00 | 56 | 1016.1 |
| 20260502163412 | 22 | 308 | 0.0 | 4.8 | 0.00 | 0.00 | 0.00 | 57 | 1016.3 |
| 20260502162909 | 22 | 297 | 0.0 | 4.8 | 0.00 | 0.00 | 0.00 | 58 | 1016.2 |
| 20260502162408 | 22 | 292 | 0.0 | 4.8 | 0.00 | 0.00 | 0.00 | 57 | 1016.3 |
| 20260502161908 | 22 | 335 | 0.0 | 4.8 | 0.00 | 0.00 | 0.00 | 57 | 1016.3 |
| 20260502161405 | 22 | 290 | 1.6 | 4.8 | 0.00 | 0.00 | 0.00 | 57 | 1016.3 |
| 20260502161024 | 22 | 310 | 1.6 | 6.4 | 0.00 | 0.00 | 0.00 | 58 | 1016.3 |
| 20260502161005 | 22 | 300 | 1.6 | 6.4 | 0.00 | 0.00 | 0.00 | 57 | 1016.3 |
| 20260502160146 | 22 | 311 | 1.6 | 4.8 | 0.00 | 0.00 | 0.00 | 60 | 1016.3 |
| 20260502152146 | 22 | 326 | 1.6 | 11.3 | 0.00 | 0.00 | 0.00 | 61 | 1016.4 |
| 20260502151402 | 22 | 314 | 1.6 | 11.3 | 0.00 | 0.00 | 0.00 | 60 | 1016.6 |
| 20260502150903 | 22 | 330 | 1.6 | 8.0 | 0.00 | 0.00 | 0.00 | 60 | 1016.6 |
| 20260502150407 | 22 | 267 | 1.6 | 8.0 | 0.00 | 0.00 | 0.00 | 62 | 1016.7 |
| 20260502130341 | 22 | 331 | 1.6 | 8.0 | 0.00 | 0.00 | 0.00 | 67 | 1017.7 |
| 20260502130255 | 22 | 75 | 1.6 | 4.8 | 0.00 | 0.00 | 0.00 | 66 | 1017.8 |
| 20260502130249 | 22 | 70 | 1.6 | 8.0 | 0.00 | 0.00 | 0.00 | 67 | 1017.7 |
| 20260502123341 | 21 | 65 | 1.6 | 8.0 | 0.00 | 0.00 | 0.00 | 70 | 1017.8 |
| 20260502123109 | 21 | 307 | 0.0 | 8.0 | 0.00 | 0.00 | 0.00 | 70 | 1017.8 |
| 20260502122341 | 21 | 73 | 1.6 | 6.4 | 0.00 | 0.00 | 0.00 | 72 | 1017.9 |
| 20260502121843 | 21 | 299 | 1.6 | 17.7 | 0.00 | 0.00 | 0.00 | 72 | 1018.0 |
| 20260502121403 | 21 | 50 | 1.6 | 17.7 | 0.00 | 0.00 | 0.00 | 70 | 1018.0 |
| 20260502120842 | 21 | 284 | 1.6 | 6.4 | 0.00 | 0.00 | 0.00 | 70 | 1018.1 |
| 20260502120346 | 21 | 108 | 1.6 | 6.4 | 0.00 | 0.00 | 0.00 | 69 | 1018.1 |
| 20260502120135 | 21 | 357 | 1.6 | 6.4 | 0.00 | 0.00 | 0.00 | 69 | 1018.0 |
| 20260502115339 | 21 | 347 | 1.6 | 6.4 | 0.00 | 0.00 | 0.00 | 67 | 1018.0 |
| 20260502114840 | 22 | 303 | 1.6 | 6.4 | 0.00 | 0.00 | 0.00 | 68 | 1018.1 |
| 20260502114339 | 21 | 108 | 1.6 | 8.0 | 0.00 | 0.00 | 0.00 | 68 | 1018.0 |
| 20260502114129 | 21 | 121 | 1.6 | 8.0 | 0.00 | 0.00 | 0.00 | 68 | 1018.1 |
| 20260502113339 | 21 | 3 | 1.6 | 8.0 | 0.00 | 0.00 | 0.00 | 70 | 1018.2 |
| 20260502112839 | 21 | 93 | 1.6 | 8.0 | 0.00 | 0.00 | 0.00 | 69 | 1018.3 |
| 20260502112341 | 21 | 314 | 1.6 | 8.0 | 0.00 | 0.00 | 0.00 | 70 | 1018.3 |
| 20260502111839 | 21 | 76 | 0.0 | 4.8 | 0.00 | 0.00 | 0.00 | 70 | 1018.4 |
| 20260502111447 | 21 | 49 | 1.6 | 9.7 | 0.00 | 0.00 | 0.00 | 69 | 1018.6 |
| 20260502111430 | 21 | 10 | 1.6 | 9.7 | 0.00 | 0.00 | 0.00 | 70 | 1018.6 |
| 20260502110354 | 21 | 93 | 1.6 | 11.3 | 0.00 | 0.00 | 0.00 | 69 | 1018.6 |
| 20260502105840 | 21 | 290 | 1.6 | 11.3 | 0.00 | 0.00 | 0.00 | 69 | 1018.6 |
| 20260502105338 | 21 | 142 | 1.6 | 8.0 | 0.00 | 0.00 | 0.00 | 69 | 1018.7 |
| 20260502104837 | 21 | 311 | 1.6 | 6.4 | 0.00 | 0.00 | 0.00 | 69 | 1018.7 |
| 20260502104334 | 20 | 339 | 1.6 | 6.4 | 0.00 | 0.00 | 0.00 | 70 | 1018.8 |
| 20260502103836 | 20 | 50 | 1.6 | 6.4 | 0.00 | 0.00 | 0.00 | 71 | 1018.7 |
| 20260502103334 | 20 | 343 | 1.6 | 6.4 | 0.00 | 0.00 | 0.00 | 70 | 1018.8 |
| 20260502103137 | 20 | 291 | 1.6 | 6.4 | 0.00 | 0.00 | 0.00 | 70 | 1018.8 |
| 20260502102331 | 20 | 312 | 1.6 | 9.7 | 0.00 | 0.00 | 0.00 | 71 | 1018.7 |
| 20260502101826 | 20 | 103 | 1.6 | 11.3 | 0.00 | 0.00 | 0.00 | 70 | 1018.7 |
| 20260502101323 | 20 | 131 | 1.6 | 11.3 | 0.00 | 0.00 | 0.00 | 72 | 1018.8 |
| 20260502100824 | 20 | 97 | 1.6 | 6.4 | 0.00 | 0.00 | 0.00 | 72 | 1018.8 |
| 20260502100332 | 20 | 356 | 1.6 | 4.8 | 0.00 | 0.00 | 0.00 | 72 | 1018.8 |
| 20260502100125 | 19 | 80 | 1.6 | 6.4 | 0.00 | 0.00 | 0.00 | 72 | 1018.8 |
| 20260502090815 | 17 | 349 | 0.0 | 0.0 | 0.00 | 0.00 | 0.00 | 75 | 1018.9 |
| 20260502090315 | 16 | 349 | 0.0 | 0.0 | 0.00 | 0.00 | 0.00 | 75 | 1018.9 |
| 20260502080106 | 15 | 56 | 0.0 | 1.6 | 0.00 | 0.00 | 0.00 | 74 | 1019.1 |
| 20260502071258 | 13 | 324 | 0.0 | 0.0 | 0.00 | 0.00 | 0.00 | 73 | 1018.9 |
| 20260502071100 | 13 | 324 | 0.0 | 0.0 | 0.00 | 0.00 | 0.00 | 72 | 1019.0 |
| 20260502070258 | 13 | 323 | 0.0 | 0.0 | 0.00 | 0.00 | 0.00 | 72 | 1019.1 |
| 20260502065758 | 13 | 324 | 0.0 | 3.2 | 0.00 | 0.00 | 0.00 | 71 | 1019.2 |
| 20260502065257 | 13 | 324 | 0.0 | 3.2 | 0.00 | 0.00 | 0.00 | 70 | 1019.1 |
| 20260502064801 | 13 | 324 | 0.0 | 0.0 | 0.00 | 0.00 | 0.00 | 72 | 1019.2 |
| 20260502064256 | 13 | 324 | 0.0 | 0.0 | 0.00 | 0.00 | 0.00 | 72 | 1019.1 |
| 20260502063755 | 13 | 324 | 0.0 | 0.0 | 0.00 | 0.00 | 0.00 | 71 | 1019.1 |
| 20260502063528 | 12 | 323 | 0.0 | 1.6 | 0.00 | 0.00 | 0.00 | 71 | 1019.1 |
| 20260502062750 | 12 | 324 | 0.0 | 1.6 | 0.00 | 0.00 | 0.00 | 72 | 1019.2 |
| 20260502062248 | 12 | 325 | 0.0 | 0.0 | 0.00 | 0.00 | 0.00 | 71 | 1019.1 |
| 20260502061746 | 12 | 325 | 0.0 | 1.6 | 0.00 | 0.00 | 0.00 | 72 | 1019.1 |
| 20260502061246 | 12 | 325 | 0.0 | 4.8 | 0.00 | 0.00 | 0.00 | 73 | 1019.1 |
| 20260502060744 | 12 | 315 | 0.0 | 4.8 | 0.00 | 0.00 | 0.00 | 74 | 1019.1 |
| 20260502060244 | 12 | 87 | 0.0 | 0.0 | 0.00 | 0.00 | 0.00 | 74 | 1019.1 |
| 20260502055749 | 11 | 87 | 0.0 | 0.0 | 0.00 | 0.00 | 0.00 | 76 | 1019.0 |
| 20260502055244 | 11 | 87 | 0.0 | 0.0 | 0.00 | 0.00 | 0.00 | 76 | 1019.0 |
| 20260502055046 | 11 | 87 | 0.0 | 0.0 | 0.00 | 0.00 | 0.00 | 76 | 1018.7 |
| 20260502054236 | 11 | 87 | 0.0 | 0.0 | 0.00 | 0.00 | 0.00 | 76 | 1018.7 |
| 20260502053736 | 11 | 87 | 0.0 | 0.0 | 0.00 | 0.00 | 0.00 | 75 | 1018.7 |
| 20260502053236 | 11 | 87 | 0.0 | 0.0 | 0.00 | 0.00 | 0.00 | 75 | 1018.8 |
| 20260502052735 | 11 | 87 | 0.0 | 0.0 | 0.00 | 0.00 | 0.00 | 76 | 1018.7 |
| 20260502052233 | 10 | 87 | 0.0 | 0.0 | 0.00 | 0.00 | 0.00 | 76 | 1018.9 |
| 20260502051732 | 10 | 87 | 0.0 | 0.0 | 0.00 | 0.00 | 0.00 | 77 | 1018.9 |
| 20260502051306 | 10 | 87 | 0.0 | 1.6 | 0.00 | 0.00 | 0.00 | 77 | 1018.9 |
| 20260502050738 | 10 | 87 | 0.0 | 3.2 | 0.00 | 0.00 | 0.00 | 76 | 1018.8 |
| 20260502050527 | 10 | 87 | 0.0 | 3.2 | 0.00 | 0.00 | 0.00 | 77 | 1018.9 |
| 20260502045730 | 10 | 87 | 0.0 | 1.6 | 0.00 | 0.00 | 0.00 | 77 | 1018.8 |
| 20260502045230 | 10 | 87 | 0.0 | 0.0 | 0.00 | 0.00 | 0.00 | 78 | 1019.0 |
| 20260502044732 | 9 | 87 | 0.0 | 0.0 | 0.00 | 0.00 | 0.00 | 78 | 1018.9 |
| 20260502044229 | 9 | 87 | 0.0 | 0.0 | 0.00 | 0.00 | 0.00 | 79 | 1018.9 |
| 20260502044022 | 9 | 87 | 0.0 | 0.0 | 0.00 | 0.00 | 0.00 | 79 | 1018.9 |
| 20260502043226 | 9 | 87 | 0.0 | 0.0 | 0.00 | 0.00 | 0.00 | 79 | 1018.7 |
| 20260502043017 | 9 | 87 | 0.0 | 0.0 | 0.00 | 0.00 | 0.00 | 78 | 1018.8 |
| 20260502042228 | 9 | 87 | 0.0 | 0.0 | 0.00 | 0.00 | 0.00 | 78 | 1018.7 |
| 20260502041726 | 9 | 87 | 0.0 | 0.0 | 0.00 | 0.00 | 0.00 | 78 | 1018.7 |
| 20260502041226 | 9 | 87 | 0.0 | 0.0 | 0.00 | 0.00 | 0.00 | 78 | 1018.7 |
| 20260502040727 | 9 | 87 | 0.0 | 0.0 | 0.00 | 0.00 | 0.00 | 77 | 1018.8 |
| 20260502040226 | 10 | 87 | 0.0 | 0.0 | 0.00 | 0.00 | 0.00 | 77 | 1018.8 |
| 20260502035726 | 10 | 87 | 0.0 | 0.0 | 0.00 | 0.00 | 0.00 | 77 | 1018.8 |
| 20260502035225 | 10 | 87 | 0.0 | 0.0 | 0.00 | 0.00 | 0.00 | 77 | 1019.0 |
| 20260502034726 | 10 | 87 | 0.0 | 0.0 | 0.00 | 0.00 | 0.00 | 77 | 1019.0 |
| 20260502034226 | 10 | 87 | 0.0 | 0.0 | 0.00 | 0.00 | 0.00 | 76 | 1019.0 |
| 20260502033726 | 10 | 87 | 0.0 | 0.0 | 0.00 | 0.00 | 0.00 | 76 | 1019.0 |
| 20260502033226 | 10 | 87 | 0.0 | 0.0 | 0.00 | 0.00 | 0.00 | 76 | 1019.0 |
| 20260502033111 | 10 | 87 | 0.0 | 0.0 | 0.00 | 0.00 | 0.00 | 75 | 1019.1 |
| 20260502032224 | 10 | 87 | 0.0 | 0.0 | 0.00 | 0.00 | 0.00 | 75 | 1019.1 |
| 20260502031722 | 10 | 87 | 0.0 | 0.0 | 0.00 | 0.00 | 0.00 | 75 | 1019.2 |
| 20260502031457 | 10 | 87 | 0.0 | 0.0 | 0.00 | 0.00 | 0.00 | 75 | 1019.2 |
| 20260502030719 | 10 | 87 | 0.0 | 0.0 | 0.00 | 0.00 | 0.00 | 75 | 1019.3 |
| 20260502030218 | 10 | 87 | 0.0 | 0.0 | 0.00 | 0.00 | 0.00 | 74 | 1019.3 |
| 20260502025718 | 10 | 87 | 0.0 | 0.0 | 0.00 | 0.00 | 0.00 | 74 | 1019.4 |
| 20260502025337 | 10 | 87 | 0.0 | 0.0 | 0.00 | 0.00 | 0.00 | 74 | 1019.4 |
| 20260502025312 | 10 | 87 | 0.0 | 0.0 | 0.00 | 0.00 | 0.00 | 73 | 1019.4 |
| 20260502024210 | 10 | 87 | 0.0 | 0.0 | 0.00 | 0.00 | 0.00 | 73 | 1019.4 |
| 20260502023708 | 10 | 87 | 0.0 | 0.0 | 0.00 | 0.00 | 0.00 | 72 | 1019.3 |
| 20260502023207 | 10 | 87 | 0.0 | 0.0 | 0.00 | 0.00 | 0.00 | 72 | 1019.4 |
| 20260502023002 | 10 | 87 | 0.0 | 0.0 | 0.00 | 0.00 | 0.00 | 72 | 1019.4 |
| 20260502022208 | 10 | 87 | 0.0 | 0.0 | 0.00 | 0.00 | 0.00 | 72 | 1019.5 |
| 20260502021708 | 11 | 87 | 0.0 | 0.0 | 0.00 | 0.00 | 0.00 | 71 | 1019.6 |